sensor_id;sensor_type;location;lat;lon;timestamp;pressure;altitude;pressure_sealevel;temperature;humidity
54172;BME280;40076;52.354;4.970;2022-08-01T00:00:40;101694.72;;;20.26;100.00
54172;BME280;40076;52.354;4.970;2022-08-01T00:03:05;101698.63;;;20.25;100.00
54172;BME280;40076;52.354;4.970;2022-08-01T00:05:31;101690.38;;;20.25;100.00
54172;BME280;40076;52.354;4.970;2022-08-01T00:07:57;101691.19;;;20.25;100.00
54172;BME280;40076;52.354;4.970;2022-08-01T00:10:22;101693.94;;;20.25;100.00
54172;BME280;40076;52.354;4.970;2022-08-01T00:12:47;101691.19;;;20.25;100.00
54172;BME280;40076;52.354;4.970;2022-08-01T00:15:15;101695.44;;;20.23;100.00
54172;BME280;40076;52.354;4.970;2022-08-01T00:17:41;101697.38;;;20.22;100.00
54172;BME280;40076;52.354;4.970;2022-08-01T00:20:10;101704.41;;;20.20;100.00
54172;BME280;40076;52.354;4.970;2022-08-01T00:22:36;101706.38;;;20.19;100.00
54172;BME280;40076;52.354;4.970;2022-08-01T00:25:03;101702.81;;;20.19;100.00
54172;BME280;40076;52.354;4.970;2022-08-01T00:27:28;101704.78;;;20.18;100.00
54172;BME280;40076;52.354;4.970;2022-08-01T00:29:54;101703.97;;;20.18;100.00
54172;BME280;40076;52.354;4.970;2022-08-01T00:32:19;101700.44;;;20.17;100.00
54172;BME280;40076;52.354;4.970;2022-08-01T00:34:44;101700.44;;;20.17;100.00
54172;BME280;40076;52.354;4.970;2022-08-01T00:37:10;101701.59;;;20.16;100.00
54172;BME280;40076;52.354;4.970;2022-08-01T00:39:35;101698.84;;;20.16;100.00
54172;BME280;40076;52.354;4.970;2022-08-01T00:42:06;101700.38;;;20.14;100.00
54172;BME280;40076;52.354;4.970;2022-08-01T00:44:32;101706.63;;;20.14;100.00
54172;BME280;40076;52.354;4.970;2022-08-01T00:46:57;101708.19;;;20.12;100.00
54172;BME280;40076;52.354;4.970;2022-08-01T00:49:23;101705.44;;;20.12;100.00
54172;BME280;40076;52.354;4.970;2022-08-01T00:51:48;101704.63;;;20.11;100.00
54172;BME280;40076;52.354;4.970;2022-08-01T00:54:14;101716.41;;;20.12;100.00
54172;BME280;40076;52.354;4.970;2022-08-01T00:56:40;101724.28;;;20.13;100.00
54172;BME280;40076;52.354;4.970;2022-08-01T00:59:06;101703.47;;;20.12;100.00
54172;BME280;40076;52.354;4.970;2022-08-01T01:01:32;101710.56;;;20.13;100.00
54172;BME280;40076;52.354;4.970;2022-08-01T01:03:57;101708.97;;;20.12;100.00
54172;BME280;40076;52.354;4.970;2022-08-01T01:06:28;101718.72;;;20.10;100.00
54172;BME280;40076;52.354;4.970;2022-08-01T01:08:58;101710.91;;;20.12;100.00
54172;BME280;40076;52.354;4.970;2022-08-01T01:11:33;101709.97;;;20.04;100.00
54172;BME280;40076;52.354;4.970;2022-08-01T01:14:04;101720.16;;;20.03;100.00
54172;BME280;40076;52.354;4.970;2022-08-01T01:16:33;101711.13;;;20.03;100.00
54172;BME280;40076;52.354;4.970;2022-08-01T01:19:04;101717.41;;;20.03;100.00
54172;BME280;40076;52.354;4.970;2022-08-01T01:22:17;101716.19;;;20.01;100.00
54172;BME280;40076;52.354;4.970;2022-08-01T01:24:54;101715.81;;;20.02;100.00
54172;BME280;40076;52.354;4.970;2022-08-01T01:30:16;101706.81;;;20.02;100.00
54172;BME280;40076;52.354;4.970;2022-08-01T01:32:44;101716.19;;;20.01;100.00
54172;BME280;40076;52.354;4.970;2022-08-01T01:35:18;101710.69;;;20.01;100.00
54172;BME280;40076;52.354;4.970;2022-08-01T01:37:45;101713.88;;;20.03;100.00
54172;BME280;40076;52.354;4.970;2022-08-01T01:40:13;101706.44;;;20.03;100.00
54172;BME280;40076;52.354;4.970;2022-08-01T01:42:41;101719.00;;;20.04;100.00
54172;BME280;40076;52.354;4.970;2022-08-01T01:45:08;101712.78;;;20.08;100.00
54172;BME280;40076;52.354;4.970;2022-08-01T01:47:34;101715.13;;;20.06;100.00
54172;BME280;40076;52.354;4.970;2022-08-01T01:50:02;101717.47;;;20.07;100.00
54172;BME280;40076;52.354;4.970;2022-08-01T01:52:29;101707.28;;;20.08;100.00
54172;BME280;40076;52.354;4.970;2022-08-01T01:54:57;101712.38;;;20.06;100.00
54172;BME280;40076;52.354;4.970;2022-08-01T01:57:24;101706.09;;;20.05;100.00
54172;BME280;40076;52.354;4.970;2022-08-01T01:59:50;101711.56;;;20.05;100.00
54172;BME280;40076;52.354;4.970;2022-08-01T02:02:18;101717.06;;;20.05;100.00
54172;BME280;40076;52.354;4.970;2022-08-01T02:04:46;101717.41;;;20.03;100.00
54172;BME280;40076;52.354;4.970;2022-08-01T02:07:16;101717.41;;;20.03;100.00
54172;BME280;40076;52.354;4.970;2022-08-01T02:09:43;101719.81;;;20.05;100.00
54172;BME280;40076;52.354;4.970;2022-08-01T02:12:10;101718.66;;;20.06;100.00
54172;BME280;40076;52.354;4.970;2022-08-01T02:14:37;101731.56;;;20.06;100.00
54172;BME280;40076;52.354;4.970;2022-08-01T02:17:05;101726.88;;;20.06;100.00
54172;BME280;40076;52.354;4.970;2022-08-01T02:19:30;101723.34;;;20.06;100.00
54172;BME280;40076;52.354;4.970;2022-08-01T02:22:04;101725.28;;;20.05;100.00
54172;BME280;40076;52.354;4.970;2022-08-01T02:24:50;101723.69;;;20.04;100.00
54172;BME280;40076;52.354;4.970;2022-08-01T02:27:27;101726.81;;;20.02;100.00
54172;BME280;40076;52.354;4.970;2022-08-01T02:30:00;101731.50;;;20.02;100.00
54172;BME280;40076;52.354;4.970;2022-08-01T02:32:31;101723.63;;;20.00;100.00
54172;BME280;40076;52.354;4.970;2022-08-01T02:35:00;101729.84;;;19.97;100.00
54172;BME280;40076;52.354;4.970;2022-08-01T02:37:29;101729.03;;;19.97;100.00
54172;BME280;40076;52.354;4.970;2022-08-01T02:39:56;101731.06;;;20.00;100.00
54172;BME280;40076;52.354;4.970;2022-08-01T02:42:22;101734.59;;;20.00;100.00
54172;BME280;40076;52.354;4.970;2022-08-01T02:44:49;101730.69;;;20.01;100.00
54172;BME280;40076;52.354;4.970;2022-08-01T02:47:15;101742.81;;;20.00;100.00
54172;BME280;40076;52.354;4.970;2022-08-01T02:49:44;101730.63;;;19.98;100.00
54172;BME280;40076;52.354;4.970;2022-08-01T02:52:13;101737.19;;;19.93;100.00
54172;BME280;40076;52.354;4.970;2022-08-01T02:54:40;101745.78;;;19.92;100.00
54172;BME280;40076;52.354;4.970;2022-08-01T02:57:08;101738.72;;;19.91;100.00
54172;BME280;40076;52.354;4.970;2022-08-01T02:59:36;101735.09;;;19.87;100.00
54172;BME280;40076;52.354;4.970;2022-08-01T03:02:03;101737.41;;;19.85;100.00
54172;BME280;40076;52.354;4.970;2022-08-01T03:04:35;101739.34;;;19.84;100.00
54172;BME280;40076;52.354;4.970;2022-08-01T03:07:03;101736.59;;;19.84;100.00
54172;BME280;40076;52.354;4.970;2022-08-01T03:09:30;101734.25;;;19.83;100.00
54172;BME280;40076;52.354;4.970;2022-08-01T03:11:59;101736.53;;;19.81;100.00
54172;BME280;40076;52.354;4.970;2022-08-01T03:14:26;101738.94;;;19.82;100.00
54172;BME280;40076;52.354;4.970;2022-08-01T03:16:54;101742.81;;;19.81;100.00
54172;BME280;40076;52.354;4.970;2022-08-01T03:19:23;101744.75;;;19.81;100.00
54172;BME280;40076;52.354;4.970;2022-08-01T03:21:49;101744.41;;;19.82;100.00
54172;BME280;40076;52.354;4.970;2022-08-01T03:24:16;101747.16;;;19.82;100.00
54172;BME280;40076;52.354;4.970;2022-08-01T03:26:42;101746.34;;;19.82;100.00
54172;BME280;40076;52.354;4.970;2022-08-01T03:29:13;101754.94;;;19.80;100.00
54172;BME280;40076;52.354;4.970;2022-08-01T03:31:43;101747.88;;;19.79;100.00
54172;BME280;40076;52.354;4.970;2022-08-01T03:34:10;101748.22;;;19.78;100.00
54172;BME280;40076;52.354;4.970;2022-08-01T03:36:43;101745.81;;;19.76;100.00
54172;BME280;40076;52.354;4.970;2022-08-01T03:39:11;101750.53;;;19.76;100.00
54172;BME280;40076;52.354;4.970;2022-08-01T03:41:40;101751.25;;;19.73;100.00
54172;BME280;40076;52.354;4.970;2022-08-01T03:44:10;101754.00;;;19.73;100.00
54172;BME280;40076;52.354;4.970;2022-08-01T03:46:51;101756.63;;;19.69;100.00
54172;BME280;40076;52.354;4.970;2022-08-01T03:49:24;101763.31;;;19.68;100.00
54172;BME280;40076;52.354;4.970;2022-08-01T03:51:51;101764.44;;;19.67;100.00
54172;BME280;40076;52.354;4.970;2022-08-01T03:54:21;101755.69;;;19.61;100.00
54172;BME280;40076;52.354;4.970;2022-08-01T03:56:49;101754.88;;;19.61;100.00
54172;BME280;40076;52.354;4.970;2022-08-01T03:59:16;101763.13;;;19.61;100.00
54172;BME280;40076;52.354;4.970;2022-08-01T04:01:43;101759.59;;;19.60;100.00
54172;BME280;40076;52.354;4.970;2022-08-01T04:04:09;101769.78;;;19.60;100.00
54172;BME280;40076;52.354;4.970;2022-08-01T04:06:37;101765.44;;;19.59;100.00
54172;BME280;40076;52.354;4.970;2022-08-01T04:09:03;101772.53;;;19.60;100.00
54172;BME280;40076;52.354;4.970;2022-08-01T04:11:28;101773.66;;;19.59;100.00
54172;BME280;40076;52.354;4.970;2022-08-01T04:13:54;101768.19;;;19.59;100.00
54172;BME280;40076;52.354;4.970;2022-08-01T04:16:21;101770.47;;;19.57;100.00
54172;BME280;40076;52.354;4.970;2022-08-01T04:18:46;101772.78;;;19.55;100.00
54172;BME280;40076;52.354;4.970;2022-08-01T04:21:13;101770.03;;;19.55;100.00
54172;BME280;40076;52.354;4.970;2022-08-01T04:23:41;101764.56;;;19.55;100.00
54172;BME280;40076;52.354;4.970;2022-08-01T04:26:09;101764.56;;;19.55;100.00
54172;BME280;40076;52.354;4.970;2022-08-01T04:28:37;101757.84;;;19.52;100.00
54172;BME280;40076;52.354;4.970;2022-08-01T04:31:05;101759.81;;;19.52;100.00
54172;BME280;40076;52.354;4.970;2022-08-01T04:33:32;101757.41;;;19.50;100.00
54172;BME280;40076;52.354;4.970;2022-08-01T04:35:59;101761.28;;;19.49;100.00
54172;BME280;40076;52.354;4.970;2022-08-01T04:38:26;101765.19;;;19.48;100.00
54172;BME280;40076;52.354;4.970;2022-08-01T04:40:54;101771.00;;;19.47;100.00
54172;BME280;40076;52.354;4.970;2022-08-01T04:43:19;101780.34;;;19.46;100.00
54172;BME280;40076;52.354;4.970;2022-08-01T04:45:46;101785.41;;;19.44;100.00
54172;BME280;40076;52.354;4.970;2022-08-01T04:48:13;101790.81;;;19.40;100.00
54172;BME280;40076;52.354;4.970;2022-08-01T04:50:41;101791.59;;;19.41;100.00
54172;BME280;40076;52.354;4.970;2022-08-01T04:53:12;101793.09;;;19.38;100.00
54172;BME280;40076;52.354;4.970;2022-08-01T04:55:38;101795.94;;;19.42;100.00
54172;BME280;40076;52.354;4.970;2022-08-01T04:58:03;101804.16;;;19.42;100.00
54172;BME280;40076;52.354;4.970;2022-08-01T05:00:29;101803.34;;;19.41;100.00
54172;BME280;40076;52.354;4.970;2022-08-01T05:02:54;101801.41;;;19.42;100.00
54172;BME280;40076;52.354;4.970;2022-08-01T05:05:19;101809.19;;;19.40;100.00
54172;BME280;40076;52.354;4.970;2022-08-01T05:07:45;101806.44;;;19.40;100.00
54172;BME280;40076;52.354;4.970;2022-08-01T05:10:11;101806.38;;;19.36;100.00
54172;BME280;40076;52.354;4.970;2022-08-01T05:12:36;101809.47;;;19.35;100.00
54172;BME280;40076;52.354;4.970;2022-08-01T05:15:02;101811.06;;;19.36;100.00
54172;BME280;40076;52.354;4.970;2022-08-01T05:17:27;101807.88;;;19.34;100.00
54172;BME280;40076;52.354;4.970;2022-08-01T05:19:53;101804.34;;;19.33;100.00
54172;BME280;40076;52.354;4.970;2022-08-01T05:22:18;101805.84;;;19.31;100.00
54172;BME280;40076;52.354;4.970;2022-08-01T05:24:43;101802.28;;;19.30;100.00
54172;BME280;40076;52.354;4.970;2022-08-01T05:27:09;101806.63;;;19.31;100.00
54172;BME280;40076;52.354;4.970;2022-08-01T05:29:35;101807.00;;;19.30;100.00
54172;BME280;40076;52.354;4.970;2022-08-01T05:32:00;101812.03;;;19.27;100.00
54172;BME280;40076;52.354;4.970;2022-08-01T05:34:26;101806.09;;;19.25;100.00
54172;BME280;40076;52.354;4.970;2022-08-01T05:36:52;101813.97;;;19.27;100.00
54172;BME280;40076;52.354;4.970;2022-08-01T05:39:17;101815.66;;;19.32;100.00
54172;BME280;40076;52.354;4.970;2022-08-01T05:41:43;101818.38;;;19.32;100.00
54172;BME280;40076;52.354;4.970;2022-08-01T05:44:08;101824.66;;;19.32;100.00
54172;BME280;40076;52.354;4.970;2022-08-01T05:46:34;101832.53;;;19.34;100.00
54172;BME280;40076;52.354;4.970;2022-08-01T05:49:02;101828.94;;;19.30;100.00
54172;BME280;40076;52.354;4.970;2022-08-01T05:51:27;101837.91;;;19.30;100.00
54172;BME280;40076;52.354;4.970;2022-08-01T05:53:53;101838.72;;;19.31;100.00
54172;BME280;40076;52.354;4.970;2022-08-01T05:56:19;101841.03;;;19.28;100.00
54172;BME280;40076;52.354;4.970;2022-08-01T05:58:44;101849.59;;;19.27;100.00
54172;BME280;40076;52.354;4.970;2022-08-01T06:01:10;101836.94;;;19.22;100.00
54172;BME280;40076;52.354;4.970;2022-08-01T06:03:35;101848.28;;;19.21;100.00
54172;BME280;40076;52.354;4.970;2022-08-01T06:06:01;101850.22;;;19.20;100.00
54172;BME280;40076;52.354;4.970;2022-08-01T06:08:26;101852.06;;;19.16;100.00
54172;BME280;40076;52.354;4.970;2022-08-01T06:10:52;101845.34;;;19.14;100.00
54172;BME280;40076;52.354;4.970;2022-08-01T06:13:17;101849.59;;;19.11;100.00
54172;BME280;40076;52.354;4.970;2022-08-01T06:15:45;101843.66;;;19.09;100.00
54172;BME280;40076;52.354;4.970;2022-08-01T06:18:10;101847.53;;;19.08;100.00
54172;BME280;40076;52.354;4.970;2022-08-01T06:20:36;101853.41;;;19.07;100.00
54172;BME280;40076;52.354;4.970;2022-08-01T06:23:01;101849.41;;;19.04;100.00
54172;BME280;40076;52.354;4.970;2022-08-01T06:25:26;101843.94;;;19.04;100.00
54172;BME280;40076;52.354;4.970;2022-08-01T06:27:52;101846.22;;;19.02;100.00
54172;BME280;40076;52.354;4.970;2022-08-01T06:30:17;101851.63;;;18.99;100.00
54172;BME280;40076;52.354;4.970;2022-08-01T06:32:43;101846.47;;;18.97;100.00
54172;BME280;40076;52.354;4.970;2022-08-01T06:35:08;101848.41;;;18.97;100.00
54172;BME280;40076;52.354;4.970;2022-08-01T06:37:34;101859.03;;;18.98;100.00
54172;BME280;40076;52.354;4.970;2022-08-01T06:40:07;101857.88;;;18.99;100.00
54172;BME280;40076;52.354;4.970;2022-08-01T06:42:33;101852.41;;;18.99;100.00
54172;BME280;40076;52.354;4.970;2022-08-01T06:45:03;101856.72;;;19.00;100.00
54172;BME280;40076;52.354;4.970;2022-08-01T06:47:28;101858.75;;;19.03;100.00
54172;BME280;40076;52.354;4.970;2022-08-01T06:49:54;101867.44;;;19.05;100.00
54172;BME280;40076;52.354;4.970;2022-08-01T06:52:19;101872.19;;;19.08;100.00
54172;BME280;40076;52.354;4.970;2022-08-01T06:54:44;101874.69;;;19.13;100.00
54172;BME280;40076;52.354;4.970;2022-08-01T06:57:09;101878.66;;;19.16;100.00
54172;BME280;40076;52.354;4.970;2022-08-01T06:59:35;101876.38;;;19.18;100.00
54172;BME280;40076;52.354;4.970;2022-08-01T07:02:00;101877.63;;;19.20;100.00
54172;BME280;40076;52.354;4.970;2022-08-01T07:04:28;101876.47;;;19.21;100.00
54172;BME280;40076;52.354;4.970;2022-08-01T07:06:54;101879.56;;;19.20;100.00
54172;BME280;40076;52.354;4.970;2022-08-01T07:09:19;101889.72;;;19.19;100.00
54172;BME280;40076;52.354;4.970;2022-08-01T07:11:44;101876.03;;;19.19;100.00
54172;BME280;40076;52.354;4.970;2022-08-01T07:14:09;101877.28;;;19.22;100.00
54172;BME280;40076;52.354;4.970;2022-08-01T07:16:35;101878.03;;;19.22;99.83
54172;BME280;40076;52.354;4.970;2022-08-01T07:19:00;101885.91;;;19.24;100.00
54172;BME280;40076;52.354;4.970;2022-08-01T07:21:25;101877.34;;;19.25;99.90
54172;BME280;40076;52.354;4.970;2022-08-01T07:23:51;101881.34;;;19.28;99.54
54172;BME280;40076;52.354;4.970;2022-08-01T07:26:16;101881.00;;;19.30;99.79
54172;BME280;40076;52.354;4.970;2022-08-01T07:28:42;101889.75;;;19.35;100.00
54172;BME280;40076;52.354;4.970;2022-08-01T07:31:08;101889.41;;;19.37;99.87
54172;BME280;40076;52.354;4.970;2022-08-01T07:33:33;101880.78;;;19.38;99.36
54172;BME280;40076;52.354;4.970;2022-08-01T07:35:58;101889.47;;;19.40;98.22
54172;BME280;40076;52.354;4.970;2022-08-01T07:38:24;101875.41;;;19.42;97.42
54172;BME280;40076;52.354;4.970;2022-08-01T07:40:49;101886.72;;;19.40;95.96
54172;BME280;40076;52.354;4.970;2022-08-01T07:43:14;101889.13;;;19.42;95.72
54172;BME280;40076;52.354;4.970;2022-08-01T07:45:41;101891.53;;;19.43;95.31
54172;BME280;40076;52.354;4.970;2022-08-01T07:48:07;101890.00;;;19.46;95.09
54172;BME280;40076;52.354;4.970;2022-08-01T07:50:32;101898.69;;;19.48;94.46
54172;BME280;40076;52.354;4.970;2022-08-01T07:52:58;101900.75;;;19.51;94.59
54172;BME280;40076;52.354;4.970;2022-08-01T07:55:24;101907.56;;;19.57;93.71
54172;BME280;40076;52.354;4.970;2022-08-01T07:57:50;101904.53;;;19.62;92.91
54172;BME280;40076;52.354;4.970;2022-08-01T08:00:15;101906.22;;;19.67;92.33
54172;BME280;40076;52.354;4.970;2022-08-01T08:02:43;101909.84;;;19.71;91.04
54172;BME280;40076;52.354;4.970;2022-08-01T08:05:10;101913.84;;;19.73;89.71
54172;BME280;40076;52.354;4.970;2022-08-01T08:07:35;101908.34;;;19.73;88.28
54172;BME280;40076;52.354;4.970;2022-08-01T08:10:00;101911.09;;;19.73;86.49
54172;BME280;40076;52.354;4.970;2022-08-01T08:12:26;101903.31;;;19.75;86.51
54172;BME280;40076;52.354;4.970;2022-08-01T08:14:51;101910.75;;;19.75;84.92
54172;BME280;40076;52.354;4.970;2022-08-01T08:17:16;101913.56;;;19.78;84.77
54172;BME280;40076;52.354;4.970;2022-08-01T08:19:42;101917.09;;;19.79;83.79
54172;BME280;40076;52.354;4.970;2022-08-01T08:22:07;101914.00;;;19.80;84.16
54172;BME280;40076;52.354;4.970;2022-08-01T08:24:34;101917.63;;;19.84;83.97
54172;BME280;40076;52.354;4.970;2022-08-01T08:27:00;101922.84;;;19.89;84.36
54172;BME280;40076;52.354;4.970;2022-08-01T08:29:28;101930.28;;;19.89;82.79
54172;BME280;40076;52.354;4.970;2022-08-01T08:31:55;101928.75;;;19.91;82.72
54172;BME280;40076;52.354;4.970;2022-08-01T08:34:21;101932.41;;;19.95;82.22
54172;BME280;40076;52.354;4.970;2022-08-01T08:36:48;101930.91;;;19.98;81.62
54172;BME280;40076;52.354;4.970;2022-08-01T08:39:14;101926.63;;;20.00;81.04
54172;BME280;40076;52.354;4.970;2022-08-01T08:41:39;101926.72;;;20.04;81.40
54172;BME280;40076;52.354;4.970;2022-08-01T08:44:06;101928.03;;;20.10;82.33
54172;BME280;40076;52.354;4.970;2022-08-01T08:46:32;101921.41;;;20.11;82.12
54172;BME280;40076;52.354;4.970;2022-08-01T08:49:00;101931.66;;;20.14;81.26
54172;BME280;40076;52.354;4.970;2022-08-01T08:51:26;101931.66;;;20.14;80.92
54172;BME280;40076;52.354;4.970;2022-08-01T08:53:55;101934.47;;;20.18;80.80
54172;BME280;40076;52.354;4.970;2022-08-01T08:56:21;101936.88;;;20.19;80.42
54172;BME280;40076;52.354;4.970;2022-08-01T08:58:48;101940.84;;;20.22;80.67
54172;BME280;40076;52.354;4.970;2022-08-01T09:01:13;101944.03;;;20.24;79.84
54172;BME280;40076;52.354;4.970;2022-08-01T09:03:39;101942.44;;;20.23;79.09
54172;BME280;40076;52.354;4.970;2022-08-01T09:06:05;101946.78;;;20.24;79.05
54172;BME280;40076;52.354;4.970;2022-08-01T09:08:32;101948.72;;;20.23;78.88
54172;BME280;40076;52.354;4.970;2022-08-01T09:10:57;101947.22;;;20.26;77.68
54172;BME280;40076;52.354;4.970;2022-08-01T09:13:24;101946.06;;;20.27;77.18
54172;BME280;40076;52.354;4.970;2022-08-01T09:15:53;101947.28;;;20.29;76.67
54172;BME280;40076;52.354;4.970;2022-08-01T09:18:39;101945.78;;;20.32;77.31
54172;BME280;40076;52.354;4.970;2022-08-01T09:23:43;101947.91;;;20.38;77.58
54172;BME280;40076;52.354;4.970;2022-08-01T09:26:10;101949.50;;;20.39;76.48
54172;BME280;40076;52.354;4.970;2022-08-01T09:28:36;101949.16;;;20.41;76.40
54172;BME280;40076;52.354;4.970;2022-08-01T09:31:15;101955.44;;;20.41;75.72
54172;BME280;40076;52.354;4.970;2022-08-01T09:33:55;101964.19;;;20.47;76.26
54172;BME280;40076;52.354;4.970;2022-08-01T09:36:23;101963.91;;;20.52;75.40
54172;BME280;40076;52.354;4.970;2022-08-01T09:38:49;101965.13;;;20.55;75.38
54172;BME280;40076;52.354;4.970;2022-08-01T09:41:15;101969.47;;;20.56;74.61
54172;BME280;40076;52.354;4.970;2022-08-01T09:43:48;101973.81;;;20.57;72.37
54172;BME280;40076;52.354;4.970;2022-08-01T09:46:14;101983.72;;;20.61;72.11
54172;BME280;40076;52.354;4.970;2022-08-01T09:48:58;101975.13;;;20.63;71.65
54172;BME280;40076;52.354;4.970;2022-08-01T09:51:35;101984.16;;;20.63;71.23
54172;BME280;40076;52.354;4.970;2022-08-01T09:54:02;101985.75;;;20.64;70.77
54172;BME280;40076;52.354;4.970;2022-08-01T09:56:44;101983.06;;;20.68;70.06
54172;BME280;40076;52.354;4.970;2022-08-01T09:59:11;101981.56;;;20.70;69.17
54172;BME280;40076;52.354;4.970;2022-08-01T10:01:49;101981.56;;;20.70;69.57
54172;BME280;40076;52.354;4.970;2022-08-01T10:04:21;101986.34;;;20.73;69.40
54172;BME280;40076;52.354;4.970;2022-08-01T10:06:49;101978.53;;;20.75;69.02
54172;BME280;40076;52.354;4.970;2022-08-01T10:09:27;101988.00;;;20.78;69.36
54172;BME280;40076;52.354;4.970;2022-08-01T10:11:55;101986.84;;;20.79;68.19
54172;BME280;40076;52.354;4.970;2022-08-01T10:14:21;101987.31;;;20.81;68.12
54172;BME280;40076;52.354;4.970;2022-08-01T10:16:47;101981.88;;;20.85;67.75
54172;BME280;40076;52.354;4.970;2022-08-01T10:19:14;101977.97;;;20.86;66.82
54172;BME280;40076;52.354;4.970;2022-08-01T10:21:39;101984.34;;;20.90;67.50
54172;BME280;40076;52.354;4.970;2022-08-01T10:24:05;101983.53;;;20.89;66.96
54172;BME280;40076;52.354;4.970;2022-08-01T10:26:33;101987.16;;;20.93;67.47
54172;BME280;40076;52.354;4.970;2022-08-01T10:28:59;101993.88;;;20.96;65.86
54172;BME280;40076;52.354;4.970;2022-08-01T10:31:25;101988.44;;;20.99;66.23
54172;BME280;40076;52.354;4.970;2022-08-01T10:33:51;101987.38;;;21.04;65.89
54172;BME280;40076;52.354;4.970;2022-08-01T10:36:19;101990.13;;;21.04;66.06
54172;BME280;40076;52.354;4.970;2022-08-01T10:38:45;101994.03;;;21.03;65.71
54172;BME280;40076;52.354;4.970;2022-08-01T10:41:12;101992.88;;;21.04;65.74
54172;BME280;40076;52.354;4.970;2022-08-01T10:43:38;101990.19;;;21.07;66.31
54172;BME280;40076;52.354;4.970;2022-08-01T10:46:04;101983.53;;;21.08;66.17
54172;BME280;40076;52.354;4.970;2022-08-01T10:51:07;101981.94;;;21.07;64.33
54172;BME280;40076;52.354;4.970;2022-08-01T10:53:33;101991.06;;;21.11;64.76
54172;BME280;40076;52.354;4.970;2022-08-01T10:56:03;101991.88;;;21.12;64.49
54172;BME280;40076;52.354;4.970;2022-08-01T10:58:37;101995.81;;;21.14;65.31
54172;BME280;40076;52.354;4.970;2022-08-01T11:03:41;102003.44;;;21.21;65.25
54172;BME280;40076;52.354;4.970;2022-08-01T11:06:17;101999.53;;;21.22;64.84
54172;BME280;40076;52.354;4.970;2022-08-01T11:08:53;101997.19;;;21.21;63.85
54172;BME280;40076;52.354;4.970;2022-08-01T11:11:19;101999.97;;;21.24;63.53
54172;BME280;40076;52.354;4.970;2022-08-01T11:16:39;102001.56;;;21.25;63.46
54172;BME280;40076;52.354;4.970;2022-08-01T11:19:06;102012.22;;;21.27;63.08
54172;BME280;40076;52.354;4.970;2022-08-01T11:29:40;102005.91;;;21.26;61.75
54172;BME280;40076;52.354;4.970;2022-08-01T11:32:26;102009.94;;;21.32;62.47
54172;BME280;40076;52.354;4.970;2022-08-01T11:34:55;102004.47;;;21.32;62.56
54172;BME280;40076;52.354;4.970;2022-08-01T11:37:25;102008.84;;;21.37;63.24
54172;BME280;40076;52.354;4.970;2022-08-01T11:40:20;102005.75;;;21.38;62.84
54172;BME280;40076;52.354;4.970;2022-08-01T11:42:47;102006.97;;;21.41;62.51
54172;BME280;40076;52.354;4.970;2022-08-01T11:45:12;102012.13;;;21.42;62.41
54172;BME280;40076;52.354;4.970;2022-08-01T11:47:49;102007.81;;;21.45;62.18
54172;BME280;40076;52.354;4.970;2022-08-01T11:50:34;102008.41;;;21.54;62.84
54172;BME280;40076;52.354;4.970;2022-08-01T11:53:21;102004.50;;;21.55;62.02
54172;BME280;40076;52.354;4.970;2022-08-01T11:55:50;101993.13;;;21.56;61.48
54172;BME280;40076;52.354;4.970;2022-08-01T11:58:23;102012.06;;;21.62;60.58
54172;BME280;40076;52.354;4.970;2022-08-01T12:00:56;102008.16;;;21.63;60.57
54172;BME280;40076;52.354;4.970;2022-08-01T12:03:27;102011.72;;;21.63;60.33
54172;BME280;40076;52.354;4.970;2022-08-01T12:05:53;102012.50;;;21.64;60.54
54172;BME280;40076;52.354;4.970;2022-08-01T12:08:29;102011.84;;;21.70;60.59
54172;BME280;40076;52.354;4.970;2022-08-01T12:10:55;102008.28;;;21.70;60.47
54172;BME280;40076;52.354;4.970;2022-08-01T12:13:20;102006.34;;;21.70;60.36
54172;BME280;40076;52.354;4.970;2022-08-01T12:15:46;102012.63;;;21.71;60.26
54172;BME280;40076;52.354;4.970;2022-08-01T12:18:12;102001.63;;;21.71;59.93
54172;BME280;40076;52.354;4.970;2022-08-01T12:20:40;102004.81;;;21.73;60.13
54172;BME280;40076;52.354;4.970;2022-08-01T12:23:09;102010.00;;;21.78;60.54
54172;BME280;40076;52.354;4.970;2022-08-01T12:25:35;102010.09;;;21.81;60.07
54172;BME280;40076;52.354;4.970;2022-08-01T12:28:03;102016.75;;;21.80;59.40
54172;BME280;40076;52.354;4.970;2022-08-01T12:30:30;102018.69;;;21.80;59.54
54172;BME280;40076;52.354;4.970;2022-08-01T12:33:08;102019.84;;;21.79;59.54
54172;BME280;40076;52.354;4.970;2022-08-01T12:35:35;102027.00;;;21.83;59.38
54172;BME280;40076;52.354;4.970;2022-08-01T12:38:18;102019.97;;;21.86;59.59
54172;BME280;40076;52.354;4.970;2022-08-01T12:40:46;102024.75;;;21.89;59.48
54172;BME280;40076;52.354;4.970;2022-08-01T12:43:18;102020.81;;;21.90;58.50
54172;BME280;40076;52.354;4.970;2022-08-01T12:45:45;102019.31;;;21.92;59.68
54172;BME280;40076;52.354;4.970;2022-08-01T12:48:14;102019.81;;;21.98;58.97
54172;BME280;40076;52.354;4.970;2022-08-01T12:50:47;102012.34;;;21.99;58.99
54172;BME280;40076;52.354;4.970;2022-08-01T12:53:14;102021.41;;;21.99;58.88
54172;BME280;40076;52.354;4.970;2022-08-01T12:55:48;102012.34;;;21.99;58.84
54172;BME280;40076;52.354;4.970;2022-08-01T12:58:15;102013.16;;;21.99;58.64
54172;BME280;40076;52.354;4.970;2022-08-01T13:00:46;102015.53;;;22.01;58.68
54172;BME280;40076;52.354;4.970;2022-08-01T13:03:17;102022.28;;;22.03;59.69
54172;BME280;40076;52.354;4.970;2022-08-01T13:05:58;102022.75;;;22.09;59.60
54172;BME280;40076;52.354;4.970;2022-08-01T13:08:32;102021.22;;;22.11;58.71
54172;BME280;40076;52.354;4.970;2022-08-01T13:11:05;102011.38;;;22.10;58.00